Time;durP1;ratioP1;P1;durP2;ratioP2;P2;SDS_P1;SDS_P2;PMS_P1;PMS_P2;Temp;Humidity;BMP_temperature;BMP_pressure;BME280_temperature;BME280_humidity;BME280_pressure;Samples;Min_cycle;Max_cycle;Signal;HPM_P1;HPM_P2
2022/12/06 00:00:01;;;;;;;4.40;2.63;;;4.20;98.00;;;;;;5013928;28;20514;-66
2022/12/06 00:02:28;;;;;;;3.63;3.10;;;4.20;98.00;;;;;;5032139;28;20465;-66
2022/12/06 00:04:55;;;;;;;10.33;4.33;;;4.40;98.00;;;;;;5032153;28;20449;-66
2022/12/06 00:07:22;;;;;;;5.77;2.77;;;4.50;98.00;;;;;;5032119;28;20529;-66
2022/12/06 00:09:49;;;;;;;9.97;3.80;;;4.60;98.00;;;;;;5031997;28;20449;-66
2022/12/06 00:12:17;;;;;;;6.20;3.20;;;4.70;98.00;;;;;;5031816;28;20489;-66
2022/12/06 00:14:44;;;;;;;9.70;4.27;;;4.50;98.00;;;;;;5031845;28;20452;-66
2022/12/06 00:17:11;;;;;;;6.97;4.07;;;4.40;98.00;;;;;;5032021;28;20475;-66
2022/12/06 00:19:38;;;;;;;5.67;3.60;;;4.40;98.00;;;;;;5031971;28;20447;-66
2022/12/06 00:22:05;;;;;;;6.30;3.53;;;4.30;98.00;;;;;;5031855;28;20839;-66
2022/12/06 00:24:35;;;;;;;5.63;3.83;;;4.30;98.00;;;;;;5014341;28;20459;-66
2022/12/06 00:27:02;;;;;;;7.80;4.13;;;4.30;98.00;;;;;;5031953;28;20542;-66
2022/12/06 00:29:31;;;;;;;9.27;4.10;;;4.20;98.00;;;;;;5031575;28;20543;-66
2022/12/06 00:31:58;;;;;;;12.90;5.33;;;4.10;98.00;;;;;;5031629;28;20460;-66
2022/12/06 00:34:25;;;;;;;8.20;4.30;;;4.10;98.00;;;;;;5031575;28;20470;-66
2022/12/06 00:36:52;;;;;;;10.50;4.57;;;4.10;98.00;;;;;;5031631;28;20951;-66
2022/12/06 00:39:19;;;;;;;6.37;3.50;;;4.10;98.00;;;;;;5031595;28;20450;-66
2022/12/06 00:41:46;;;;;;;4.03;3.20;;;4.20;98.00;;;;;;5031861;28;20452;-66
2022/12/06 00:44:15;;;;;;;5.47;3.10;;;4.20;98.00;;;;;;5031841;28;20484;-66
2022/12/06 00:46:43;;;;;;;6.50;3.33;;;4.20;98.00;;;;;;5031789;28;20452;-66
2022/12/06 00:49:13;;;;;;;6.40;3.70;;;4.20;98.00;;;;;;5032070;28;20459;-66
2022/12/06 00:51:41;;;;;;;7.17;3.90;;;4.30;98.00;;;;;;5032248;28;20889;-66
2022/12/06 00:54:09;;;;;;;6.00;3.30;;;4.30;98.00;;;;;;5014324;28;20495;-66
2022/12/06 00:56:36;;;;;;;5.73;3.73;;;4.30;98.00;;;;;;5032205;28;20469;-66
2022/12/06 00:59:03;;;;;;;4.77;2.60;;;4.30;98.00;;;;;;5031402;28;20865;-66
2022/12/06 01:01:32;;;;;;;4.90;3.47;;;4.40;98.00;;;;;;5031327;28;20799;-66
2022/12/06 01:04:03;;;;;;;11.43;4.30;;;4.50;98.00;;;;;;5013920;28;20459;-66
2022/12/06 01:06:32;;;;;;;9.53;4.00;;;4.60;98.00;;;;;;5031566;28;20456;-66
2022/12/06 01:09:01;;;;;;;5.10;2.60;;;4.70;98.00;;;;;;5031180;28;20864;-66
2022/12/06 01:11:29;;;;;;;5.97;2.77;;;4.60;98.00;;;;;;5013849;28;20879;-66
2022/12/06 01:13:56;;;;;;;7.80;3.50;;;4.60;98.00;;;;;;5031100;28;20544;-66
2022/12/06 01:16:25;;;;;;;6.87;2.70;;;4.70;98.00;;;;;;5031265;28;20460;-66
2022/12/06 01:18:55;;;;;;;4.87;3.13;;;4.80;98.00;;;;;;5031036;28;20952;-66
2022/12/06 01:21:24;;;;;;;8.60;4.10;;;4.90;98.00;;;;;;5030907;28;20865;-66
2022/12/06 01:23:53;;;;;;;5.27;2.57;;;4.80;98.00;;;;;;5031158;28;20498;-66
2022/12/06 01:26:22;;;;;;;6.97;3.63;;;4.70;98.00;;;;;;5031127;28;20496;-66
2022/12/06 01:28:51;;;;;;;8.53;3.57;;;4.80;98.00;;;;;;5030975;28;20455;-66
2022/12/06 01:31:18;;;;;;;5.40;2.80;;;4.70;98.00;;;;;;5031001;28;20462;-66
2022/12/06 01:33:46;;;;;;;4.90;3.43;;;4.70;98.00;;;;;;5030926;28;20485;-66
2022/12/06 01:36:17;;;;;;;4.93;3.03;;;4.70;98.00;;;;;;5031066;28;20465;-66
2022/12/06 01:38:50;;;;;;;8.30;3.67;;;4.60;98.00;;;;;;5031031;28;20467;-66
2022/12/06 01:41:18;;;;;;;6.63;3.80;;;4.60;98.00;;;;;;5031291;28;20890;-66
2022/12/06 01:43:46;;;;;;;5.33;3.27;;;4.50;98.00;;;;;;5030850;28;20456;-66
2022/12/06 01:46:24;;;;;;;10.13;3.43;;;4.50;98.00;;;;;;5030951;28;20459;-66
2022/12/06 01:48:58;;;;;;;5.93;3.60;;;4.30;98.00;;;;;;5013359;28;20469;-66
2022/12/06 01:51:25;;;;;;;5.67;3.10;;;4.30;98.00;;;;;;5030798;28;20501;-66
2022/12/06 01:53:55;;;;;;;8.23;4.50;;;4.30;98.00;;;;;;5012972;28;20492;-66
2022/12/06 01:56:22;;;;;;;6.00;3.43;;;4.30;98.00;;;;;;5030631;28;20876;-66
2022/12/06 01:58:54;;;;;;;7.33;4.47;;;4.50;98.00;;;;;;5030608;28;20465;-66
2022/12/06 02:01:21;;;;;;;10.73;4.43;;;4.60;98.00;;;;;;5013210;28;20516;-66
2022/12/06 02:03:48;;;;;;;10.23;3.40;;;4.70;98.00;;;;;;5030638;28;20497;-66
2022/12/06 02:06:16;;;;;;;3.23;2.50;;;4.60;98.00;;;;;;5030561;28;20466;-66
2022/12/06 02:08:45;;;;;;;6.90;3.80;;;4.50;98.00;;;;;;5030564;28;20457;-66
2022/12/06 02:11:13;;;;;;;5.13;3.63;;;4.40;98.00;;;;;;5030760;28;20985;-66
2022/12/06 02:13:43;;;;;;;5.13;3.20;;;4.40;98.00;;;;;;5030412;28;20491;-66
2022/12/06 02:16:26;;;;;;;4.73;3.33;;;4.40;98.00;;;;;;5030519;28;20479;-66
2022/12/06 02:18:58;;;;;;;9.07;3.70;;;4.40;98.00;;;;;;5012950;28;20860;-66
2022/12/06 02:21:36;;;;;;;5.40;3.47;;;4.30;98.00;;;;;;5030615;28;20452;-66
2022/12/06 02:24:40;;;;;;;5.13;3.23;;;4.40;98.00;;;;;;5034174;28;20869;-66
2022/12/06 02:27:26;;;;;;;4.60;3.23;;;4.20;98.00;;;;;;5033861;28;20514;-66
2022/12/06 02:30:09;;;;;;;5.53;3.10;;;4.00;98.00;;;;;;5017943;28;20560;-66
2022/12/06 02:32:43;;;;;;;9.73;4.97;;;4.00;98.00;;;;;;5033990;28;20457;-66
2022/12/06 02:35:17;;;;;;;6.60;3.53;;;4.00;98.00;;;;;;5034172;28;20469;-66
2022/12/06 02:37:48;;;;;;;16.53;4.80;;;3.90;98.00;;;;;;5017180;28;20455;-65
2022/12/06 02:40:19;;;;;;;7.40;4.10;;;3.90;98.00;;;;;;5033664;28;20947;-66
2022/12/06 02:42:51;;;;;;;9.00;4.13;;;3.90;98.00;;;;;;5033822;28;20872;-66
2022/12/06 02:45:23;;;;;;;4.60;3.30;;;4.00;98.00;;;;;;5033633;28;20462;-66
2022/12/06 02:47:57;;;;;;;6.07;2.77;;;4.10;98.00;;;;;;5033774;28;20555;-66
2022/12/06 02:50:36;;;;;;;4.80;3.60;;;4.20;98.00;;;;;;5033529;28;20464;-65
2022/12/06 02:53:10;;;;;;;5.03;3.50;;;4.30;98.00;;;;;;5033537;28;20936;-66
2022/12/06 02:55:38;;;;;;;4.00;2.67;;;4.30;98.00;;;;;;5033267;28;20991;-65
2022/12/06 02:58:05;;;;;;;5.27;3.30;;;4.30;98.00;;;;;;5016118;28;20943;-66
2022/12/06 03:00:36;;;;;;;9.37;3.23;;;4.40;98.00;;;;;;5033483;28;20467;-66
2022/12/06 03:03:34;;;;;;;6.13;3.70;;;4.40;98.00;;;;;;5015619;28;20518;-66
2022/12/06 03:06:44;;;;;;;6.23;3.37;;;4.30;98.00;;;;;;5028451;28;20558;-66
2022/12/06 03:09:22;;;;;;;7.27;3.90;;;4.20;98.00;;;;;;5033246;28;20958;-66
2022/12/06 03:11:59;;;;;;;7.53;4.07;;;4.10;98.00;;;;;;5033250;28;20477;-66
2022/12/06 03:14:29;;;;;;;4.33;3.17;;;4.10;98.00;;;;;;5033029;28;21053;-66
2022/12/06 03:17:04;;;;;;;3.57;2.63;;;4.30;98.00;;;;;;5033079;28;20462;-65
2022/12/06 03:19:36;;;;;;;4.70;3.50;;;4.40;98.00;;;;;;5033042;28;20464;-65
2022/12/06 03:22:08;;;;;;;4.50;2.57;;;4.40;98.00;;;;;;5033169;28;20473;-66
2022/12/06 03:24:37;;;;;;;1.80;1.47;;;4.30;98.00;;;;;;5015904;28;20579;-66
2022/12/06 03:27:11;;;;;;;2.60;2.07;;;4.20;98.00;;;;;;5033266;28;20475;-66
2022/12/06 03:29:43;;;;;;;5.13;3.43;;;4.10;98.00;;;;;;5015411;28;20463;-66
2022/12/06 03:32:13;;;;;;;5.33;3.57;;;4.30;98.00;;;;;;5032686;28;21015;-65
2022/12/06 03:34:46;;;;;;;2.70;2.30;;;4.40;98.00;;;;;;5032599;28;20508;-66
2022/12/06 03:37:17;;;;;;;6.20;3.57;;;4.40;98.00;;;;;;5032773;28;20828;-65
2022/12/06 03:39:48;;;;;;;2.33;2.10;;;4.50;98.00;;;;;;5032723;28;20460;-66
2022/12/06 03:42:16;;;;;;;6.43;2.77;;;4.40;98.00;;;;;;5032545;28;20561;-66
2022/12/06 03:44:43;;;;;;;10.93;3.43;;;4.50;98.00;;;;;;5015020;28;20466;-66
2022/12/06 03:47:14;;;;;;;8.00;5.00;;;4.60;98.00;;;;;;5032444;28;20452;-66
2022/12/06 03:49:46;;;;;;;4.07;2.90;;;4.50;98.00;;;;;;5032682;28;20468;-66
2022/12/06 03:52:13;;;;;;;5.57;3.73;;;4.50;98.00;;;;;;5032437;28;20515;-66
2022/12/06 03:54:41;;;;;;;4.00;2.60;;;4.50;98.00;;;;;;5032029;28;20504;-66
2022/12/06 03:57:09;;;;;;;2.97;2.60;;;4.40;98.00;;;;;;5032149;28;20512;-66
2022/12/06 03:59:36;;;;;;;7.13;3.07;;;4.40;98.00;;;;;;5032149;28;20964;-66
2022/12/06 04:02:03;;;;;;;4.90;3.13;;;4.40;98.00;;;;;;5015052;28;20828;-66
2022/12/06 04:04:30;;;;;;;3.30;2.33;;;4.40;98.00;;;;;;5032246;28;20469;-66
2022/12/06 04:06:58;;;;;;;5.30;3.27;;;4.30;98.00;;;;;;5032173;28;20509;-66
2022/12/06 04:14:51;;;;;;;3.80;2.80;;;4.10;98.00;;;;;;5030418;28;20507;-66
2022/12/06 04:20:04;;;;;;;5.60;3.73;;;4.20;98.00;;;;;;5032198;28;20464;-66
2022/12/06 04:25:16;;;;;;;6.67;3.30;;;4.20;98.00;;;;;;5031755;28;20443;-65
2022/12/06 04:38:43;;;;;;;7.90;3.30;;;4.60;98.00;;;;;;5031671;28;20492;-66
2022/12/06 04:41:11;;;;;;;24.97;3.10;;;4.60;98.00;;;;;;5031519;28;20463;-66
2022/12/06 04:43:57;;;;;;;3.87;2.30;;;4.60;98.00;;;;;;5031110;28;20969;-66
2022/12/06 04:46:24;;;;;;;16.97;3.87;;;4.50;98.00;;;;;;5013421;28;20460;-66
2022/12/06 04:48:51;;;;;;;4.00;3.27;;;4.50;98.00;;;;;;5031483;28;20553;-65
2022/12/06 04:51:19;;;;;;;4.83;3.10;;;4.60;98.00;;;;;;5031343;28;20461;-66
2022/12/06 04:53:47;;;;;;;7.10;3.67;;;4.60;98.00;;;;;;5031128;28;20485;-66
2022/12/06 04:56:14;;;;;;;7.07;2.93;;;4.60;98.00;;;;;;5031147;28;20464;-66
2022/12/06 04:58:42;;;;;;;6.83;3.37;;;4.50;98.00;;;;;;5031296;28;20679;-66
2022/12/06 05:01:09;;;;;;;5.83;3.13;;;4.40;98.00;;;;;;5031348;28;20468;-66
2022/12/06 05:03:40;;;;;;;3.20;2.00;;;4.40;98.00;;;;;;5031159;28;20483;-66
2022/12/06 05:06:07;;;;;;;6.60;3.20;;;4.40;98.00;;;;;;5031140;28;20448;-66
2022/12/06 05:08:42;;;;;;;6.57;3.17;;;4.30;98.00;;;;;;5031563;28;20460;-66
2022/12/06 05:11:11;;;;;;;5.30;3.23;;;4.30;98.00;;;;;;5015008;28;20498;-66
2022/12/06 05:13:38;;;;;;;5.57;3.53;;;4.30;98.00;;;;;;5031472;28;20959;-66
2022/12/06 05:16:07;;;;;;;7.83;2.73;;;4.40;98.00;;;;;;5031280;28;20455;-66
2022/12/06 05:18:34;;;;;;;4.80;2.60;;;4.50;98.00;;;;;;5031205;28;20473;-65
2022/12/06 05:21:04;;;;;;;5.17;3.67;;;4.40;98.00;;;;;;5031182;28;20487;-66
2022/12/06 05:23:31;;;;;;;7.63;3.37;;;4.50;98.00;;;;;;5031023;28;20460;-65
2022/12/06 05:26:00;;;;;;;2.07;1.93;;;4.50;98.00;;;;;;5031076;28;20488;-66
2022/12/06 05:28:29;;;;;;;6.00;3.27;;;4.60;98.00;;;;;;5013687;28;20455;-66
2022/12/06 05:30:57;;;;;;;4.80;3.20;;;4.60;98.00;;;;;;5030767;28;20515;-66
2022/12/06 05:33:24;;;;;;;8.30;3.27;;;4.50;98.00;;;;;;5030809;28;20455;-66
2022/12/06 05:35:52;;;;;;;5.97;2.47;;;4.60;98.00;;;;;;5030905;28;20457;-66
2022/12/06 05:38:19;;;;;;;1.77;1.70;;;4.60;98.00;;;;;;5030904;28;20466;-66
2022/12/06 05:40:46;;;;;;;7.10;3.53;;;4.60;98.00;;;;;;5013146;28;20463;-66
2022/12/06 05:43:14;;;;;;;2.60;2.10;;;4.60;98.00;;;;;;5030866;28;20469;-66
2022/12/06 05:45:43;;;;;;;4.43;2.70;;;4.50;98.00;;;;;;5030782;28;20822;-66
2022/12/06 05:48:13;;;;;;;4.03;2.77;;;4.60;98.00;;;;;;5030786;28;20462;-66
2022/12/06 05:50:40;;;;;;;3.53;2.50;;;4.50;98.00;;;;;;5030850;28;20502;-66
2022/12/06 05:53:07;;;;;;;4.53;2.37;;;4.60;98.00;;;;;;5030750;28;20457;-66
2022/12/06 05:55:34;;;;;;;6.30;2.53;;;4.60;98.00;;;;;;5030578;28;20503;-66
2022/12/06 05:58:01;;;;;;;9.47;3.40;;;4.60;98.00;;;;;;5033287;28;20465;-66
2022/12/06 06:00:29;;;;;;;4.47;3.07;;;4.70;98.00;;;;;;5034698;28;20953;-66
2022/12/06 06:02:57;;;;;;;6.00;3.40;;;4.70;98.00;;;;;;5034765;28;20517;-66
2022/12/06 06:05:25;;;;;;;7.13;3.37;;;4.60;98.00;;;;;;5034718;28;20927;-66
2022/12/06 06:07:52;;;;;;;6.60;3.67;;;4.60;98.00;;;;;;5035855;28;20466;-66
2022/12/06 06:10:19;;;;;;;5.53;3.20;;;4.60;98.00;;;;;;5017625;28;20465;-66
2022/12/06 06:12:46;;;;;;;5.97;3.17;;;4.60;98.00;;;;;;5035492;28;20829;-66
2022/12/06 06:15:14;;;;;;;2.73;2.53;;;4.60;98.00;;;;;;5034610;28;20490;-66
2022/12/06 06:17:42;;;;;;;6.20;3.10;;;4.60;98.00;;;;;;5034523;28;20460;-66
2022/12/06 06:20:12;;;;;;;4.03;2.40;;;4.50;98.00;;;;;;5016777;28;20463;-66
2022/12/06 06:22:41;;;;;;;10.40;3.07;;;4.60;98.00;;;;;;5034316;28;20451;-66
2022/12/06 06:25:09;;;;;;;5.53;3.13;;;4.60;98.00;;;;;;5034050;28;20463;-66
2022/12/06 06:27:37;;;;;;;7.50;3.00;;;4.60;98.00;;;;;;5016716;28;20463;-66
2022/12/06 06:30:05;;;;;;;4.27;2.93;;;4.60;98.00;;;;;;5033948;28;20468;-66
2022/12/06 06:32:32;;;;;;;4.37;2.50;;;4.60;98.00;;;;;;5034128;28;21018;-66
2022/12/06 06:34:59;;;;;;;2.70;2.00;;;4.70;98.00;;;;;;5034004;28;20912;-66
2022/12/06 06:37:28;;;;;;;5.20;2.60;;;4.70;98.00;;;;;;5033855;28;20462;-66
2022/12/06 06:39:55;;;;;;;4.57;2.93;;;4.90;98.00;;;;;;5033819;28;20461;-66
2022/12/06 06:42:22;;;;;;;8.57;3.37;;;4.90;98.00;;;;;;5016278;28;20457;-66
2022/12/06 06:44:50;;;;;;;3.33;2.13;;;4.80;98.00;;;;;;5033810;28;20452;-66
2022/12/06 06:47:17;;;;;;;2.83;2.33;;;4.70;98.00;;;;;;5033699;28;20789;-66
2022/12/06 06:49:45;;;;;;;4.20;2.70;;;4.60;98.00;;;;;;5033612;28;20962;-66
2022/12/06 06:52:12;;;;;;;3.50;2.43;;;4.60;98.00;;;;;;5033650;28;20463;-65
2022/12/06 06:54:40;;;;;;;6.70;2.90;;;4.60;98.00;;;;;;5033372;28;20481;-66
2022/12/06 06:57:08;;;;;;;7.33;3.03;;;4.50;98.00;;;;;;5033580;28;20459;-66
2022/12/06 06:59:35;;;;;;;6.17;3.13;;;4.50;98.00;;;;;;5016254;28;20446;-66
2022/12/06 07:02:02;;;;;;;7.57;4.33;;;4.50;98.00;;;;;;5033650;28;20522;-66
2022/12/06 07:04:29;;;;;;;6.30;3.30;;;4.50;98.00;;;;;;5033308;28;20464;-66
2022/12/06 07:07:00;;;;;;;6.20;3.53;;;4.50;98.00;;;;;;5033363;28;20462;-66
2022/12/06 07:09:27;;;;;;;7.03;3.17;;;4.40;98.00;;;;;;5015832;28;20456;-66
2022/12/06 07:11:56;;;;;;;3.23;2.10;;;4.50;98.00;;;;;;5033297;28;20462;-66
2022/12/06 07:14:23;;;;;;;4.77;3.03;;;4.50;98.00;;;;;;5033002;28;20475;-66
2022/12/06 07:16:50;;;;;;;3.73;2.40;;;4.60;98.00;;;;;;5033223;28;20464;-66
2022/12/06 07:19:17;;;;;;;4.67;3.07;;;4.70;98.00;;;;;;5033107;28;20464;-66
2022/12/06 07:21:44;;;;;;;4.13;2.40;;;4.80;98.00;;;;;;5033336;28;20496;-66
2022/12/06 07:24:12;;;;;;;3.20;2.47;;;4.90;98.00;;;;;;5032967;28;20529;-66
2022/12/06 07:26:40;;;;;;;6.93;3.67;;;5.10;98.00;;;;;;5032865;28;20446;-66
2022/12/06 07:29:08;;;;;;;6.43;3.60;;;4.90;98.00;;;;;;5033079;28;20963;-66
2022/12/06 07:31:36;;;;;;;4.50;2.87;;;4.90;98.00;;;;;;5032864;28;20458;-60
2022/12/06 07:34:03;;;;;;;4.67;2.90;;;4.80;98.00;;;;;;5015278;28;20625;-61
2022/12/06 07:36:31;;;;;;;5.07;2.67;;;4.80;98.00;;;;;;5032686;28;20533;-61
2022/12/06 07:39:00;;;;;;;4.70;2.63;;;4.80;98.00;;;;;;5032988;28;20458;-61
2022/12/06 07:47:00;;;;;;;5.10;3.03;;;4.90;98.00;;;;;;5032855;28;20536;-61
2022/12/06 07:49:28;;;;;;;5.93;3.37;;;4.80;98.00;;;;;;5032807;28;20521;-61
2022/12/06 07:51:58;;;;;;;4.30;2.30;;;4.80;98.00;;;;;;5014912;28;20996;-62
2022/12/06 07:54:25;;;;;;;4.77;2.80;;;4.80;98.00;;;;;;5032352;28;20486;-61
2022/12/06 07:56:55;;;;;;;6.93;2.57;;;4.70;98.00;;;;;;5032336;28;20533;-62
2022/12/06 07:59:24;;;;;;;6.30;2.77;;;4.80;98.00;;;;;;5015133;28;20466;-61
2022/12/06 08:01:51;;;;;;;5.27;3.10;;;4.80;98.00;;;;;;5032277;28;20500;-62
2022/12/06 08:04:18;;;;;;;6.00;2.70;;;4.90;98.00;;;;;;5032162;28;20910;-61
2022/12/06 08:06:46;;;;;;;6.13;3.20;;;4.90;98.00;;;;;;5032257;28;20867;-62
2022/12/06 08:09:14;;;;;;;3.70;2.60;;;5.00;98.00;;;;;;5032164;28;20468;-61
2022/12/06 08:11:41;;;;;;;4.33;3.20;;;5.00;98.00;;;;;;5032154;28;20952;-61
2022/12/06 08:14:10;;;;;;;9.83;4.50;;;5.00;98.00;;;;;;5031883;28;20458;-61
2022/12/06 08:16:40;;;;;;;7.47;3.27;;;5.20;98.00;;;;;;5031986;28;21039;-61
2022/12/06 08:19:07;;;;;;;6.23;3.80;;;5.20;98.00;;;;;;5031775;28;20944;-61
2022/12/06 08:21:34;;;;;;;5.17;3.30;;;5.40;98.00;;;;;;5031527;28;20648;-62
2022/12/06 08:24:02;;;;;;;5.43;2.97;;;5.40;98.00;;;;;;5032038;28;20872;-62
2022/12/06 08:26:29;;;;;;;3.90;2.80;;;5.30;98.00;;;;;;5031673;28;20470;-61
2022/12/06 08:28:59;;;;;;;8.50;3.00;;;5.30;98.00;;;;;;5031815;28;21042;-62
2022/12/06 08:31:28;;;;;;;5.03;2.60;;;5.20;98.00;;;;;;5014524;28;20457;-62
2022/12/06 08:33:56;;;;;;;5.90;3.20;;;5.20;98.00;;;;;;5031808;28;20596;-61
2022/12/06 08:36:24;;;;;;;4.10;2.63;;;5.20;98.00;;;;;;5013990;28;21006;-61
2022/12/06 08:38:52;;;;;;;3.97;2.63;;;5.10;98.00;;;;;;5031799;28;20455;-61
2022/12/06 08:44:07;;;;;;;7.60;3.27;;;5.30;98.00;;;;;;5025025;28;21002;-61
2022/12/06 08:46:35;;;;;;;7.43;3.70;;;5.40;98.00;;;;;;5028847;28;20467;-61
2022/12/06 08:49:04;;;;;;;9.93;4.00;;;5.30;98.00;;;;;;5028930;28;20461;-62
2022/12/06 08:51:34;;;;;;;12.20;4.00;;;5.30;98.00;;;;;;5026641;28;20458;-60
2022/12/06 08:54:01;;;;;;;9.70;4.20;;;5.30;98.00;;;;;;5028658;28;20468;-62
2022/12/06 08:56:30;;;;;;;15.90;5.67;;;5.30;98.00;;;;;;5028321;28;20504;-62
2022/12/06 08:58:57;;;;;;;5.73;3.67;;;5.40;98.00;;;;;;5028819;28;20463;-61
2022/12/06 09:01:27;;;;;;;6.53;3.50;;;5.40;98.00;;;;;;5028481;28;20469;-61
2022/12/06 09:03:54;;;;;;;5.47;2.97;;;5.50;98.00;;;;;;5028518;28;20506;-63
2022/12/06 09:06:23;;;;;;;9.63;3.17;;;5.50;98.00;;;;;;5028177;28;20461;-62
2022/12/06 09:08:50;;;;;;;7.40;3.53;;;5.60;98.00;;;;;;5028546;28;20461;-62
2022/12/06 09:11:19;;;;;;;7.43;3.20;;;5.60;98.00;;;;;;5010772;28;20514;-62
2022/12/06 09:13:46;;;;;;;6.43;3.33;;;5.70;98.00;;;;;;5028332;28;20874;-63
2022/12/06 09:16:17;;;;;;;5.93;3.17;;;5.70;98.00;;;;;;5028253;28;20504;-62
2022/12/06 09:18:44;;;;;;;7.17;3.30;;;5.70;98.00;;;;;;5028363;28;20456;-62
2022/12/06 09:21:25;;;;;;;6.80;3.60;;;5.80;98.00;;;;;;5028488;28;20966;-62
2022/12/06 09:23:55;;;;;;;5.17;3.30;;;6.00;98.00;;;;;;5030673;28;20465;-61
2022/12/06 09:26:22;;;;;;;6.17;2.50;;;6.00;98.00;;;;;;5030972;28;20489;-61
2022/12/06 09:28:50;;;;;;;6.47;2.63;;;6.10;98.00;;;;;;5030973;28;20467;-62
2022/12/06 09:31:17;;;;;;;4.67;2.70;;;6.10;98.00;;;;;;5032252;28;20971;-62
2022/12/06 09:33:45;;;;;;;4.60;3.30;;;6.10;98.00;;;;;;5033958;28;20461;-62
2022/12/06 09:36:17;;;;;;;3.67;2.53;;;6.10;98.00;;;;;;5034726;28;20571;-62
2022/12/06 09:38:45;;;;;;;9.73;3.63;;;6.00;98.00;;;;;;5035049;28;20480;-62
2022/12/06 09:41:38;;;;;;;3.57;2.53;;;6.10;98.00;;;;;;5034992;28;20460;-62
2022/12/06 09:44:22;;;;;;;6.30;3.53;;;6.10;98.00;;;;;;5035176;28;20460;-62
2022/12/06 09:47:00;;;;;;;5.53;3.37;;;6.10;98.00;;;;;;5034956;28;20464;-62
2022/12/06 09:49:36;;;;;;;9.07;3.20;;;6.10;98.00;;;;;;5034774;28;20463;-62
2022/12/06 09:52:26;;;;;;;6.83;3.50;;;6.00;98.00;;;;;;5034972;28;20474;-61
2022/12/06 09:55:17;;;;;;;6.10;3.80;;;5.90;98.00;;;;;;5034546;28;20970;-62
2022/12/06 09:57:51;;;;;;;4.67;2.87;;;5.90;98.00;;;;;;5034643;28;20465;-62
2022/12/06 10:00:22;;;;;;;3.73;2.33;;;5.90;98.00;;;;;;5034576;28;20457;-62
2022/12/06 10:03:05;;;;;;;3.60;2.70;;;5.90;98.00;;;;;;5034540;28;20461;-62
2022/12/06 10:05:39;;;;;;;6.80;3.50;;;5.80;98.00;;;;;;5034458;28;20544;-62
2022/12/06 10:08:24;;;;;;;3.80;2.60;;;5.70;98.00;;;;;;5034314;28;20463;-62
2022/12/06 10:10:58;;;;;;;5.20;3.00;;;5.70;98.00;;;;;;5034460;28;20471;-62
2022/12/06 10:13:48;;;;;;;4.90;2.80;;;5.70;98.00;;;;;;5034322;28;20461;-62
2022/12/06 10:16:33;;;;;;;5.20;3.00;;;5.70;98.00;;;;;;5034139;28;20548;-62
2022/12/06 10:19:12;;;;;;;4.27;2.20;;;5.70;98.00;;;;;;5034452;28;20455;-62
2022/12/06 10:21:52;;;;;;;7.40;4.17;;;5.70;98.00;;;;;;5034247;28;20457;-62
2022/12/06 10:24:34;;;;;;;6.17;2.63;;;5.70;98.00;;;;;;5034250;28;20547;-62
2022/12/06 10:27:08;;;;;;;2.90;2.23;;;5.70;98.00;;;;;;5034386;28;20456;-61
2022/12/06 10:29:48;;;;;;;8.73;3.50;;;5.80;98.00;;;;;;5034122;28;20493;-62
2022/12/06 10:32:19;;;;;;;5.50;3.03;;;5.80;98.00;;;;;;5034086;28;20458;-62
2022/12/06 10:34:55;;;;;;;4.00;2.33;;;5.80;98.00;;;;;;5033981;28;20729;-62
2022/12/06 10:37:36;;;;;;;7.57;3.80;;;5.80;98.00;;;;;;5034238;28;20484;-62
2022/12/06 10:40:11;;;;;;;5.33;3.30;;;5.90;98.00;;;;;;5034239;28;20502;-62
2022/12/06 10:42:43;;;;;;;5.70;3.47;;;5.80;98.00;;;;;;5033439;28;20852;-62
2022/12/06 10:48:14;;;;;;;6.30;2.60;;;5.80;98.00;;;;;;5018964;28;20450;-62
2022/12/06 10:50:43;;;;;;;3.67;2.77;;;5.90;98.00;;;;;;5033687;28;20976;-62
2022/12/06 10:53:15;;;;;;;6.37;3.37;;;5.70;98.00;;;;;;5033306;28;20478;-62
2022/12/06 10:55:48;;;;;;;3.67;2.80;;;5.70;98.00;;;;;;5033377;28;20486;-62
2022/12/06 10:58:20;;;;;;;8.20;3.47;;;5.70;98.00;;;;;;5033319;28;20543;-62
2022/12/06 11:00:55;;;;;;;3.97;2.53;;;5.60;98.00;;;;;;5033319;28;20462;-62
2022/12/06 11:03:31;;;;;;;3.97;2.43;;;5.70;98.00;;;;;;5033513;28;20864;-62
2022/12/06 11:06:02;;;;;;;4.87;2.87;;;5.60;98.00;;;;;;5033432;28;20465;-62
2022/12/06 11:08:34;;;;;;;6.20;3.50;;;5.70;98.00;;;;;;5041508;28;20450;-62
2022/12/06 11:11:03;;;;;;;5.80;2.87;;;5.80;98.00;;;;;;5053109;28;20467;-62
2022/12/06 11:13:38;;;;;;;4.17;2.43;;;5.90;98.00;;;;;;5053209;28;20449;-62
2022/12/06 11:16:14;;;;;;;7.00;3.93;;;6.10;98.00;;;;;;5047595;28;20994;-62
2022/12/06 11:18:41;;;;;;;9.23;2.80;;;6.20;98.00;;;;;;5013304;28;20473;-62
2022/12/06 11:21:18;;;;;;;9.30;4.07;;;6.10;98.00;;;;;;5013219;28;20466;-62
2022/12/06 11:23:52;;;;;;;4.17;2.90;;;6.00;98.00;;;;;;5013353;28;20463;-62
2022/12/06 11:26:29;;;;;;;6.67;3.10;;;6.00;98.00;;;;;;5013602;28;20492;-62
2022/12/06 11:29:08;;;;;;;3.50;2.63;;;5.90;98.00;;;;;;5014522;28;20975;-62
2022/12/06 11:31:42;;;;;;;5.23;2.97;;;6.00;98.00;;;;;;5013433;28;20467;-62
2022/12/06 11:34:16;;;;;;;4.40;2.90;;;6.00;98.00;;;;;;5013993;28;20469;-62
2022/12/06 11:36:45;;;;;;;5.40;3.33;;;6.00;98.00;;;;;;4995065;28;20869;-62
2022/12/06 11:39:14;;;;;;;15.43;3.27;;;5.90;98.00;;;;;;5013071;28;20464;-62
2022/12/06 11:41:43;;;;;;;3.87;2.83;;;5.90;98.00;;;;;;5012858;28;20457;-62
2022/12/06 11:44:14;;;;;;;4.67;3.07;;;5.90;98.00;;;;;;5013025;28;20465;-62
2022/12/06 11:46:43;;;;;;;4.87;3.10;;;6.00;98.00;;;;;;5012826;28;20465;-62
2022/12/06 11:49:17;;;;;;;5.63;3.13;;;5.90;98.00;;;;;;5013089;28;20604;-62
2022/12/06 11:51:44;;;;;;;6.10;2.53;;;5.90;98.00;;;;;;5012776;28;20463;-62
2022/12/06 11:54:22;;;;;;;4.77;2.60;;;6.00;98.00;;;;;;5011723;28;20468;-62
2022/12/06 11:56:49;;;;;;;3.10;1.90;;;6.00;98.00;;;;;;5012583;28;20517;-62
2022/12/06 11:59:28;;;;;;;4.07;3.00;;;6.20;98.00;;;;;;5035438;28;20501;-61
2022/12/06 12:02:00;;;;;;;3.20;2.47;;;6.20;98.00;;;;;;5052195;28;20548;-62
2022/12/06 12:04:35;;;;;;;4.20;2.73;;;6.10;98.00;;;;;;5052058;28;20524;-62
2022/12/06 12:07:10;;;;;;;3.30;2.03;;;6.00;98.00;;;;;;5052151;28;20802;-63
2022/12/06 12:09:50;;;;;;;7.40;2.77;;;6.00;98.00;;;;;;5052274;28;20550;-62
2022/12/06 12:12:22;;;;;;;4.03;1.63;;;6.10;98.00;;;;;;5052105;28;20457;-62
2022/12/06 12:14:56;;;;;;;3.47;2.47;;;6.00;98.00;;;;;;5051951;28;20470;-62
2022/12/06 12:17:30;;;;;;;4.60;2.40;;;6.00;98.00;;;;;;5034580;28;20485;-61
2022/12/06 12:19:59;;;;;;;3.77;2.50;;;5.90;98.00;;;;;;5051962;28;20802;-61
2022/12/06 12:22:30;;;;;;;5.00;2.13;;;5.90;98.00;;;;;;5051833;28;20470;-61
2022/12/06 12:24:59;;;;;;;2.33;2.20;;;5.90;98.00;;;;;;5051863;28;20453;-62
2022/12/06 12:27:41;;;;;;;4.43;2.17;;;6.00;98.00;;;;;;5034364;28;20464;-62
2022/12/06 12:30:22;;;;;;;2.30;1.63;;;5.90;98.00;;;;;;5051937;28;20510;-62
2022/12/06 12:33:08;;;;;;;2.33;1.60;;;5.90;98.00;;;;;;5048225;28;20461;-62
2022/12/06 12:35:37;;;;;;;2.83;2.10;;;5.90;98.00;;;;;;5048259;28;20487;-63
2022/12/06 12:38:12;;;;;;;3.50;2.17;;;5.80;98.00;;;;;;5051580;28;21025;-63
2022/12/06 12:40:42;;;;;;;2.73;2.10;;;5.70;98.00;;;;;;5051625;28;20458;-63
2022/12/06 12:43:17;;;;;;;2.17;1.43;;;5.80;98.00;;;;;;5051704;28;20529;-63
2022/12/06 12:46:04;;;;;;;3.10;1.83;;;5.80;98.00;;;;;;5051541;28;20511;-63
2022/12/06 12:48:33;;;;;;;2.27;2.00;;;5.80;98.00;;;;;;5051475;28;20461;-63
2022/12/06 12:51:03;;;;;;;3.40;1.80;;;5.80;98.00;;;;;;5051050;28;20508;-63
2022/12/06 12:53:32;;;;;;;4.13;2.37;;;5.80;98.00;;;;;;5051252;28;20470;-64
2022/12/06 12:56:07;;;;;;;2.73;1.93;;;5.70;98.00;;;;;;5051140;28;20489;-63
2022/12/06 12:58:34;;;;;;;4.90;2.73;;;5.80;98.00;;;;;;5051217;28;20457;-63
2022/12/06 13:01:06;;;;;;;2.60;1.83;;;5.80;98.00;;;;;;5051274;28;20464;-63
2022/12/06 13:03:35;;;;;;;2.73;2.07;;;5.70;98.00;;;;;;5051127;28;21028;-63
2022/12/06 13:06:03;;;;;;;2.80;2.23;;;5.50;98.00;;;;;;5050818;28;20449;-61
2022/12/06 13:08:34;;;;;;;2.80;2.07;;;5.30;98.00;;;;;;5051106;28;20989;-63
2022/12/06 13:11:04;;;;;;;2.23;1.67;;;5.40;98.00;;;;;;5051178;28;20467;-63
2022/12/06 13:13:37;;;;;;;1.60;1.33;;;5.40;98.00;;;;;;5051107;28;20970;-63
2022/12/06 13:16:12;;;;;;;2.80;1.77;;;5.40;98.00;;;;;;5051112;28;20484;-62
2022/12/06 13:18:45;;;;;;;2.90;1.87;;;5.40;98.00;;;;;;5033709;28;20460;-63
2022/12/06 13:21:19;;;;;;;1.83;1.30;;;5.40;98.00;;;;;;5051144;28;20464;-62
2022/12/06 13:23:50;;;;;;;3.97;2.23;;;5.50;98.00;;;;;;5051174;28;20512;-63
2022/12/06 13:26:24;;;;;;;1.83;1.70;;;5.40;98.00;;;;;;5050928;28;20454;-63
2022/12/06 13:28:55;;;;;;;3.33;2.00;;;5.40;98.00;;;;;;5050976;28;20458;-63
2022/12/06 13:31:24;;;;;;;1.97;1.77;;;5.40;98.00;;;;;;5051190;28;20450;-63
2022/12/06 13:33:56;;;;;;;1.80;1.50;;;5.40;98.00;;;;;;5050934;28;20452;-63
2022/12/06 13:36:25;;;;;;;2.50;1.73;;;5.40;98.00;;;;;;5050892;28;20482;-63
2022/12/06 13:38:54;;;;;;;1.63;1.40;;;5.40;98.00;;;;;;5050960;28;20464;-63
2022/12/06 13:44:42;;;;;;;2.13;1.40;;;5.20;98.00;;;;;;5051161;28;20442;-63
2022/12/06 13:47:48;;;;;;;1.90;1.70;;;5.20;98.00;;;;;;5050783;28;20473;-63
2022/12/06 13:50:53;;;;;;;1.40;1.33;;;5.30;98.00;;;;;;5050759;28;20499;-63
2022/12/06 13:53:21;;;;;;;2.27;1.60;;;5.40;98.00;;;;;;5050718;28;20463;-63